AUGUSTUS 31, 2015

 

METAR SMJP 311700Z 12007KT 9999 SCT045 33/21 Q1013 NOSIG=

METAR SMZO 311700Z 05004KT 9999 SCT045 34/22 Q1012 NOSIG=

METAR SMNI 311700Z NIL=